Aviation Digital Data Service (ADDS)

Output produced by METARs form (1235 UTC 17 August 2019)
found at http://aviationweather.gov/metar/data/
 
SBEG 171213Z 21003KT 9999 VCSH VCTS BKN005 FEW025CB BKN100 26/24 Q1015
SBEG 171200Z 27002KT 9999 BKN003 BKN100 25/24 Q1015
SBEG 171112Z 28003KT 9999 BKN003 SCT100 25/24 Q1014
SBEG 171100Z 30003KT 9999 FEW002 SCT008 BKN100 25/24 Q1014
SBEG 171000Z 28002KT 9999 SCT004 BKN100 24/24 Q1014
SBEG 170900Z 27002KT CAVOK 24/23 Q1013
SBEG 170800Z 24002KT CAVOK 24/24 Q1013
TAF SBEG 170940Z 1712/1812 30005KT 8000 FEW010 TX30/1718Z TN23/1810Z 
     BECMG 1712/1714 33004KT SCT015 
     BECMG 1715/1717 03005KT SCT023 FEW030TCU 
     TEMPO 1718/1722 7000 SHRA BKN020 FEW030TCU 
     BECMG 1723/1802 31005KT FEW020 
     BECMG 1808/1810 28004KT SCT010 RMK PHC
       
SBSN 171200Z 10010KT 9999 FEW017 SCT100 28/24 Q1015
SBSN 171100Z 08009KT 9999 FEW015 SCT100 27/23 Q1014
SBSN 171000Z 10003KT 9999 SCT012 SCT015 BKN100 23/23 Q1014
SBSN 170900Z 13002KT 9999 FEW017 22/21 Q1013
SBSN 170800Z 14001KT CAVOK 22/22 Q1013
TAF SBSN 170940Z 1712/1812 11005KT 9999 FEW020 TX31/1718Z TN22/1809Z 
     BECMG 1712/1714 08007KT 
     BECMG 1716/1718 10007KT FEW023 FEW030TCU 
     BECMG 1721/1723 08005KT FEW020 
     BECMG 1800/1803 16004KT CAVOK RMK PHC